Time;durP1;ratioP1;P1;durP2;ratioP2;P2;SDS_P1;SDS_P2;PMS_P1;PMS_P2;Temp;Humidity;BMP_temperature;BMP_pressure;BME280_temperature;BME280_humidity;BME280_pressure;Samples;Min_cycle;Max_cycle;Signal;HPM_P1;HPM_P2
2022/07/24 00:02:10;;;;;;;10.23;7.75;;;;;;;17.95;68.51;101796.75;5057978;28;20041;-74
2022/07/24 00:04:35;;;;;;;10.57;8.07;;;;;;;17.92;68.25;101797.75;5055211;28;20024;-74
2022/07/24 00:07:00;;;;;;;12.10;8.38;;;;;;;17.89;68.67;101787.34;5035762;28;20102;-75
2022/07/24 00:09:25;;;;;;;10.75;8.00;;;;;;;17.87;68.92;101789.19;5055527;28;20497;-74
2022/07/24 00:11:51;;;;;;;11.75;8.45;;;;;;;17.86;68.79;101798.00;5059908;28;20049;-74
2022/07/24 00:14:16;;;;;;;10.52;8.13;;;;;;;17.86;68.53;101796.22;5063576;28;20029;-74
2022/07/24 00:16:42;;;;;;;10.60;8.32;;;;;;;17.86;68.38;101796.22;5052433;28;20036;-74
2022/07/24 00:19:07;;;;;;;10.23;8.90;;;;;;;17.84;68.94;101799.84;5060881;28;20051;-74
2022/07/24 00:21:33;;;;;;;13.38;9.15;;;;;;;17.82;68.41;101799.03;5057817;28;20028;-74
2022/07/24 00:23:58;;;;;;;12.20;9.05;;;;;;;17.81;68.25;101800.84;5054646;28;20476;-74
2022/07/24 00:26:23;;;;;;;12.43;9.05;;;;;;;17.81;68.34;101794.69;5058249;28;20127;-74
2022/07/24 00:28:49;;;;;;;13.07;9.25;;;;;;;17.80;67.74;101799.13;5060140;28;20020;-74
2022/07/24 00:31:15;;;;;;;14.40;9.57;;;;;;;17.78;67.59;101800.06;5062725;28;20028;-74
2022/07/24 00:33:40;;;;;;;12.50;9.35;;;;;;;17.75;68.11;101796.69;5061757;28;20025;-74
2022/07/24 00:36:06;;;;;;;14.60;9.65;;;;;;;17.73;67.88;101790.63;5057855;28;20036;-74
2022/07/24 00:38:32;;;;;;;11.35;8.95;;;;;;;17.71;68.27;101794.22;5061883;28;20043;-74
2022/07/24 00:40:57;;;;;;;12.75;9.02;;;;;;;17.68;68.72;101789.06;5057152;28;20496;-74
2022/07/24 00:43:23;;;;;;;12.70;8.65;;;;;;;17.66;69.75;101799.66;5055070;28;20033;-75
2022/07/24 00:45:48;;;;;;;12.88;9.00;;;;;;;17.65;69.39;101797.13;5055354;28;20623;-74
2022/07/24 00:48:14;;;;;;;11.25;8.75;;;;;;;17.63;69.51;101796.31;5055315;28;20029;-74
2022/07/24 00:50:40;;;;;;;12.52;8.75;;;;;;;17.63;68.15;101798.94;5057714;28;20032;-74
2022/07/24 00:53:05;;;;;;;11.90;9.30;;;;;;;17.58;69.16;101799.97;5044894;28;20404;-74
2022/07/24 00:55:33;;;;;;;11.88;9.07;;;;;;;17.55;69.30;101804.50;5059755;28;20037;-74
2022/07/24 00:57:58;;;;;;;13.07;9.18;;;;;;;17.54;68.44;101803.63;5054150;28;20029;-74
2022/07/24 01:00:23;;;;;;;13.18;8.88;;;;;;;17.54;68.45;101800.16;5038569;28;20029;-74
2022/07/24 01:02:49;;;;;;;13.00;8.88;;;;;;;17.51;68.50;101789.75;5055684;28;20020;-74
2022/07/24 01:05:17;;;;;;;10.98;8.50;;;;;;;17.48;68.63;101797.78;5052142;28;20063;-74
2022/07/24 01:07:42;;;;;;;11.77;8.88;;;;;;;17.45;68.33;101793.50;5061034;28;20361;-74
2022/07/24 01:10:08;;;;;;;11.68;9.50;;;;;;;17.42;68.56;101797.09;5057535;28;20032;-74
2022/07/24 01:12:36;;;;;;;10.38;8.52;;;;;;;17.39;68.79;101797.22;5061281;28;20024;-74
2022/07/24 01:15:01;;;;;;;11.80;8.27;;;;;;;17.37;69.01;101790.28;5057411;28;21487;-74
2022/07/24 01:17:31;;;;;;;11.77;8.57;;;;;;;17.33;68.31;101789.56;5061778;28;20024;-74
2022/07/24 01:19:58;;;;;;;11.02;8.43;;;;;;;17.31;68.92;101780.88;5038765;28;20033;-74
2022/07/24 01:22:25;;;;;;;11.43;8.50;;;;;;;17.27;69.11;101784.53;5061366;28;20039;-74
2022/07/24 01:24:50;;;;;;;12.13;8.68;;;;;;;17.22;69.03;101781.25;5055212;28;20029;-74
2022/07/24 01:27:16;;;;;;;10.43;8.10;;;;;;;17.21;69.53;101779.53;5054762;28;20017;-74
2022/07/24 01:29:41;;;;;;;10.82;8.45;;;;;;;17.18;69.60;101774.38;5057072;28;20081;-74
2022/07/24 01:32:07;;;;;;;9.30;7.97;;;;;;;17.14;69.65;101771.03;5058734;28;20464;-74
2022/07/24 01:34:32;;;;;;;9.80;8.23;;;;;;;17.12;70.01;101764.97;5059629;28;20025;-74
2022/07/24 01:36:57;;;;;;;11.88;8.75;;;;;;;17.10;69.94;101765.00;5059940;28;20020;-74
2022/07/24 01:39:22;;;;;;;12.73;8.63;;;;;;;17.08;69.95;101764.22;5055597;28;20025;-74
2022/07/24 01:41:48;;;;;;;10.48;8.38;;;;;;;17.08;70.04;101756.31;5054761;28;20048;-74
2022/07/24 01:44:13;;;;;;;11.95;8.43;;;;;;;17.07;69.57;101756.41;5055258;28;20031;-75
2022/07/24 01:46:38;;;;;;;12.75;8.65;;;;;;;17.04;69.56;101754.75;5059435;28;20021;-74
2022/07/24 01:49:04;;;;;;;10.95;8.10;;;;;;;17.03;69.99;101755.66;5057920;28;20032;-74
2022/07/24 01:51:29;;;;;;;11.88;8.32;;;;;;;17.02;69.78;101756.56;5055714;28;20043;-74
2022/07/24 01:53:54;;;;;;;11.18;8.50;;;;;;;17.02;69.40;101753.94;5053491;28;20031;-74
2022/07/24 01:56:20;;;;;;;12.77;8.40;;;;;;;17.03;69.54;101754.78;5053696;28;20025;-73
2022/07/24 01:58:45;;;;;;;12.25;7.88;;;;;;;17.02;69.62;101748.69;5050335;28;20032;-74
2022/07/24 02:01:10;;;;;;;11.70;7.22;;;;;;;17.04;69.28;101746.88;5056940;28;20028;-74
2022/07/24 02:03:35;;;;;;;10.73;7.88;;;;;;;17.06;69.44;101752.03;5057955;28;20464;-74
2022/07/24 02:06:01;;;;;;;11.20;7.50;;;;;;;17.05;69.47;101751.22;5056687;28;20031;-74
2022/07/24 02:08:26;;;;;;;12.02;7.55;;;;;;;17.07;69.55;101746.75;5060819;28;20081;-74
2022/07/24 02:10:53;;;;;;;10.00;7.93;;;;;;;17.11;69.48;101748.31;5061474;28;20506;-74
2022/07/24 02:13:18;;;;;;;9.38;7.40;;;;;;;17.12;69.23;101749.19;5062537;28;20042;-74
2022/07/24 02:15:43;;;;;;;10.05;7.63;;;;;;;17.17;69.05;101747.22;5048817;28;20024;-75
2022/07/24 02:18:09;;;;;;;10.77;7.50;;;;;;;17.19;69.42;101750.66;5059799;28;20027;-74
2022/07/24 02:20:34;;;;;;;11.13;7.40;;;;;;;17.21;69.03;101748.81;5060253;28;20032;-74
2022/07/24 02:23:00;;;;;;;10.77;7.70;;;;;;;17.24;68.92;101748.72;5058442;28;20028;-74
2022/07/24 02:25:25;;;;;;;10.70;7.55;;;;;;;17.27;68.95;101752.97;5055896;28;20048;-74
2022/07/24 02:27:51;;;;;;;9.18;7.35;;;;;;;17.29;69.00;101753.78;5062795;28;20117;-74
2022/07/24 02:30:19;;;;;;;10.07;7.38;;;;;;;17.30;68.92;101758.13;5059502;28;20379;-74
2022/07/24 02:32:45;;;;;;;11.20;7.53;;;;;;;17.29;68.76;101757.28;5059417;28;20045;-74
2022/07/24 02:35:11;;;;;;;11.80;8.27;;;;;;;17.32;68.63;101766.81;5065129;28;20375;-74
2022/07/24 02:37:41;;;;;;;10.15;7.88;;;;;;;17.32;68.56;101761.56;5068617;28;20099;-74
2022/07/24 02:40:08;;;;;;;9.95;8.30;;;;;;;17.32;68.38;101761.56;5060744;28;20447;-74
2022/07/24 02:42:34;;;;;;;11.07;7.75;;;;;;;17.34;68.70;101758.84;5058088;28;20052;-74
2022/07/24 02:44:59;;;;;;;10.95;8.57;;;;;;;17.33;68.70;101762.44;5053768;28;20029;-74
2022/07/24 02:47:24;;;;;;;12.80;8.27;;;;;;;17.34;68.77;101762.34;5039176;28;20391;-74
2022/07/24 02:49:50;;;;;;;12.02;8.00;;;;;;;17.35;69.11;101760.56;5061403;28;20020;-74
2022/07/24 02:52:15;;;;;;;10.00;7.90;;;;;;;17.33;69.15;101768.53;5061321;28;20031;-74
2022/07/24 02:54:40;;;;;;;11.10;8.50;;;;;;;17.33;69.00;101763.25;5057769;28;20455;-74
2022/07/24 02:57:06;;;;;;;9.68;8.18;;;;;;;17.33;68.90;101762.44;5066151;28;20028;-74
2022/07/24 02:59:31;;;;;;;9.52;7.57;;;;;;;17.31;69.09;101757.22;5058392;28;20036;-74
2022/07/24 03:01:57;;;;;;;12.38;8.20;;;;;;;17.32;68.80;101761.56;5047373;28;20032;-74
2022/07/24 03:04:23;;;;;;;10.02;7.80;;;;;;;17.33;69.12;101752.75;5062036;28;20032;-74
2022/07/24 03:06:48;;;;;;;10.02;8.18;;;;;;;17.31;69.16;101759.84;5063031;28;20119;-74
2022/07/24 03:09:13;;;;;;;10.48;8.40;;;;;;;17.30;69.16;101758.13;5055678;28;20177;-74
2022/07/24 03:11:38;;;;;;;11.85;8.18;;;;;;;17.30;69.07;101760.75;5055384;28;20472;-74
2022/07/24 03:14:04;;;;;;;11.98;8.27;;;;;;;17.30;68.84;101758.13;5061900;28;20028;-74
2022/07/24 03:16:29;;;;;;;11.13;7.85;;;;;;;17.28;69.05;101752.06;5061114;28;20051;-74
2022/07/24 03:18:54;;;;;;;11.23;8.07;;;;;;;17.27;68.73;101751.22;5067828;28;20027;-74
2022/07/24 03:21:19;;;;;;;10.63;8.60;;;;;;;17.24;69.04;101753.13;5064254;28;20369;-74
2022/07/24 03:23:45;;;;;;;10.65;8.27;;;;;;;17.23;69.07;101751.41;5059906;28;20025;-74
2022/07/24 03:26:10;;;;;;;11.10;8.20;;;;;;;17.20;69.06;101746.25;5065882;28;20024;-74
2022/07/24 03:28:35;;;;;;;11.10;7.85;;;;;;;17.18;69.33;101753.34;5070264;28;20445;-74
2022/07/24 03:31:01;;;;;;;9.13;7.90;;;;;;;17.16;69.29;101749.91;5065087;28;20028;-74
2022/07/24 03:33:27;;;;;;;10.88;8.02;;;;;;;17.12;69.45;101755.28;5068635;28;20422;-74
2022/07/24 03:35:53;;;;;;;9.93;8.10;;;;;;;17.11;69.51;101748.31;5067676;28;20028;-74
2022/07/24 03:38:19;;;;;;;10.63;8.20;;;;;;;17.11;69.71;101750.09;5069196;28;20044;-74
2022/07/24 03:40:44;;;;;;;10.68;8.00;;;;;;;17.09;69.51;101747.53;5068105;28;20036;-74
2022/07/24 03:43:10;;;;;;;11.23;7.97;;;;;;;17.08;69.60;101755.47;5065274;28;20068;-74
2022/07/24 03:45:35;;;;;;;10.05;8.23;;;;;;;17.06;69.27;101752.91;5069602;28;20024;-74
2022/07/24 03:48:00;;;;;;;10.63;8.02;;;;;;;17.05;70.07;101747.72;5064856;28;20051;-74
2022/07/24 03:50:26;;;;;;;11.13;8.60;;;;;;;17.04;69.87;101751.25;5070768;28;20082;-74
2022/07/24 03:52:51;;;;;;;11.25;8.18;;;;;;;17.01;69.85;101752.22;5070568;28;20502;-74
2022/07/24 03:55:17;;;;;;;10.85;8.05;;;;;;;16.99;70.29;101754.06;5065996;28;20038;-74
2022/07/24 03:57:42;;;;;;;10.65;8.00;;;;;;;16.98;70.27;101752.34;5071091;28;20088;-74
2022/07/24 04:00:09;;;;;;;10.35;7.85;;;;;;;16.96;70.15;101748.91;5068635;28;20103;-74
2022/07/24 04:02:34;;;;;;;10.50;8.23;;;;;;;16.95;70.43;101745.44;5066726;28;20024;-74
2022/07/24 04:04:59;;;;;;;10.02;7.95;;;;;;;16.93;70.88;101744.59;5066889;28;20028;-74
2022/07/24 04:07:25;;;;;;;10.63;8.25;;;;;;;16.93;70.61;101741.09;5062815;28;20028;-74
2022/07/24 04:09:50;;;;;;;14.80;8.63;;;;;;;16.92;71.07;101742.03;5065987;28;20107;-74
2022/07/24 04:12:15;;;;;;;14.45;8.57;;;;;;;16.91;70.80;101745.59;5067904;28;20471;-74
2022/07/24 04:14:40;;;;;;;14.27;8.80;;;;;;;16.91;71.19;101745.59;5046747;28;20029;-74
2022/07/24 04:17:06;;;;;;;11.90;8.55;;;;;;;16.92;70.97;101744.66;5066356;28;20036;-74
2022/07/24 04:19:31;;;;;;;11.52;8.45;;;;;;;16.91;71.14;101740.34;5067779;28;20031;-74
2022/07/24 04:21:57;;;;;;;10.38;8.00;;;;;;;16.91;71.15;101737.72;5068346;28;20384;-74
2022/07/24 04:24:23;;;;;;;11.88;8.02;;;;;;;16.90;71.18;101730.75;5061447;28;20036;-74
2022/07/24 04:26:48;;;;;;;11.23;8.93;;;;;;;16.90;71.33;101733.38;5066353;28;20025;-74
2022/07/24 04:29:13;;;;;;;11.02;8.48;;;;;;;16.90;71.50;101733.38;5055256;28;20516;-74
2022/07/24 04:31:39;;;;;;;12.63;9.23;;;;;;;16.89;71.62;101736.91;5065575;28;20036;-74
2022/07/24 04:34:04;;;;;;;10.98;8.93;;;;;;;16.89;71.57;101747.41;5067767;28;20028;-74
2022/07/24 04:36:29;;;;;;;13.07;8.90;;;;;;;16.89;71.73;101747.41;5057623;28;20587;-74
2022/07/24 04:38:55;;;;;;;13.05;9.07;;;;;;;16.89;71.92;101758.78;5058380;28;20037;-74
2022/07/24 04:41:20;;;;;;;13.10;9.30;;;;;;;16.90;71.85;101765.75;5062635;28;20107;-74
2022/07/24 04:43:45;;;;;;;12.40;9.27;;;;;;;16.90;72.06;101762.28;5062641;28;20128;-74
2022/07/24 04:46:11;;;;;;;12.80;9.70;;;;;;;16.90;72.02;101759.66;5060538;28;20472;-74
2022/07/24 04:48:36;;;;;;;11.23;9.18;;;;;;;16.89;71.88;101756.16;5057676;28;20103;-74
2022/07/24 04:51:02;;;;;;;12.48;9.80;;;;;;;16.90;71.89;101759.66;5055855;28;20116;-74
2022/07/24 04:53:29;;;;;;;12.93;9.77;;;;;;;16.91;72.18;101764.00;5066048;28;20042;-74
2022/07/24 04:55:55;;;;;;;14.48;9.85;;;;;;;16.92;72.39;101769.19;5058625;28;20029;-74
2022/07/24 04:58:20;;;;;;;12.65;9.63;;;;;;;16.95;72.41;101762.97;5054072;28;20057;-74
2022/07/24 05:00:46;;;;;;;11.82;9.27;;;;;;;16.96;72.05;101757.69;5057611;28;20032;-74
2022/07/24 05:03:11;;;;;;;12.80;9.18;;;;;;;17.00;72.43;101755.78;5058547;28;20032;-74
2022/07/24 05:05:36;;;;;;;13.48;9.60;;;;;;;17.02;72.41;101756.56;5065206;28;20017;-74
2022/07/24 05:08:02;;;;;;;12.30;9.85;;;;;;;17.06;73.23;101762.56;5065425;28;20024;-74
2022/07/24 05:10:27;;;;;;;12.50;10.00;;;;;;;17.07;72.80;101767.78;5058417;28;20472;-74
2022/07/24 05:12:52;;;;;;;15.65;10.18;;;;;;;17.09;72.69;101754.56;5059468;28;20028;-74
2022/07/24 05:15:18;;;;;;;14.10;10.10;;;;;;;17.12;73.06;101765.81;5061362;28;20016;-74
2022/07/24 05:17:43;;;;;;;18.98;10.38;;;;;;;17.16;73.51;101760.44;5053467;28;20123;-74
2022/07/24 05:20:09;;;;;;;18.88;11.48;;;;;;;17.19;73.34;101760.31;5064850;28;20043;-74
2022/07/24 05:22:34;;;;;;;14.77;11.27;;;;;;;17.21;73.61;101753.25;5069648;28;20025;-74
2022/07/24 05:24:59;;;;;;;16.23;11.40;;;;;;;17.25;73.66;101754.84;5064096;28;20025;-74
2022/07/24 05:27:25;;;;;;;19.40;12.35;;;;;;;17.28;73.84;101757.31;5068512;28;20032;-74
2022/07/24 05:29:50;;;;;;;18.60;12.65;;;;;;;17.31;73.72;101757.22;5069037;28;20361;-74
2022/07/24 05:32:15;;;;;;;15.13;12.50;;;;;;;17.35;73.90;101755.31;5067388;28;20029;-74
2022/07/24 05:34:41;;;;;;;15.85;12.40;;;;;;;17.38;73.28;101756.06;5063382;28;20035;-74
2022/07/24 05:37:07;;;;;;;18.42;13.00;;;;;;;17.43;73.71;101763.75;5063195;28;20029;-74
2022/07/24 05:39:32;;;;;;;18.25;13.52;;;;;;;17.47;73.81;101764.47;5072087;28;20028;-74
2022/07/24 05:41:57;;;;;;;17.50;13.68;;;;;;;17.51;73.72;101774.81;5067835;28;20044;-74
2022/07/24 05:44:22;;;;;;;19.30;13.65;;;;;;;17.53;73.84;101767.72;5065926;28;20115;-74
2022/07/24 05:46:48;;;;;;;21.65;14.55;;;;;;;17.56;73.50;101767.59;5061719;28;20070;-74
2022/07/24 05:49:13;;;;;;;19.67;13.82;;;;;;;17.61;73.76;101767.41;5069413;28;20043;-74
2022/07/24 05:51:39;;;;;;;19.17;14.10;;;;;;;17.64;73.90;101769.09;5054002;28;20055;-74
2022/07/24 05:54:05;;;;;;;19.52;13.73;;;;;;;17.68;74.08;101763.63;5052657;28;20021;-73
2022/07/24 05:56:30;;;;;;;19.60;13.98;;;;;;;17.74;74.19;101768.66;5069982;28;20024;-74
2022/07/24 05:58:56;;;;;;;19.95;14.13;;;;;;;17.80;74.51;101766.66;5051308;28;20380;-74
2022/07/24 06:01:21;;;;;;;19.25;14.40;;;;;;;17.83;74.00;101770.03;5066653;28;20028;-77
2022/07/24 06:03:47;;;;;;;19.25;14.50;;;;;;;17.88;73.58;101775.09;5051006;28;20017;-74
2022/07/24 06:06:12;;;;;;;21.42;14.63;;;;;;;17.93;73.65;101773.16;5071528;28;20024;-74
2022/07/24 06:08:38;;;;;;;20.55;14.93;;;;;;;17.98;73.72;101776.44;5070784;28;20053;-75
2022/07/24 06:11:03;;;;;;;20.35;14.45;;;;;;;18.01;73.67;101780.75;5068155;28;20039;-74
2022/07/24 06:13:28;;;;;;;23.80;15.35;;;;;;;18.06;73.80;101786.66;5064807;28;20047;-74
2022/07/24 06:15:54;;;;;;;21.40;14.52;;;;;;;18.10;73.92;101785.63;5069908;28;20457;-74
2022/07/24 06:18:19;;;;;;;22.50;14.85;;;;;;;18.14;73.52;101788.97;5068216;28;20023;-74
2022/07/24 06:20:45;;;;;;;23.08;14.82;;;;;;;18.19;73.06;101787.00;5067116;28;20504;-74
2022/07/24 06:23:10;;;;;;;19.30;14.63;;;;;;;18.24;73.86;101784.16;5068761;28;20115;-74
2022/07/24 06:25:35;;;;;;;21.23;14.20;;;;;;;18.30;73.87;101786.53;5065450;28;20028;-74
2022/07/24 06:28:01;;;;;;;20.50;14.73;;;;;;;18.33;72.83;101786.41;5071228;28;20020;-74
2022/07/24 06:30:27;;;;;;;22.42;14.10;;;;;;;18.39;73.44;101774.75;5066881;28;20020;-74
2022/07/24 06:32:57;;;;;;;20.92;13.95;;;;;;;18.45;73.35;101779.72;5067735;28;20484;-74
2022/07/24 06:35:23;;;;;;;20.13;13.88;;;;;;;18.52;72.87;101781.19;5046685;28;20475;-74
2022/07/24 06:37:49;;;;;;;18.20;14.05;;;;;;;18.55;72.16;101786.31;5068551;28;20083;-74
2022/07/24 06:40:18;;;;;;;18.50;13.82;;;;;;;18.61;71.83;101786.06;5072228;28;20428;-74
2022/07/24 06:42:46;;;;;;;17.50;12.80;;;;;;;18.66;70.75;101778.78;5071803;28;20048;-74
2022/07/24 06:45:11;;;;;;;16.67;11.98;;;;;;;18.71;70.39;101780.38;5070619;28;20036;-74
2022/07/24 06:47:37;;;;;;;18.40;12.27;;;;;;;18.77;70.32;101780.09;5068909;28;20452;-74
2022/07/24 06:50:03;;;;;;;18.13;11.52;;;;;;;18.84;69.16;101788.59;5067743;28;20476;-74
2022/07/24 06:52:28;;;;;;;16.52;11.25;;;;;;;18.89;69.05;101783.94;5051192;28;20064;-74
2022/07/24 06:54:54;;;;;;;17.88;11.50;;;;;;;18.96;69.50;101788.88;5067317;28;20444;-74
2022/07/24 06:57:19;;;;;;;14.88;10.77;;;;;;;19.01;68.60;101787.81;5063519;28;20498;-74
2022/07/24 06:59:45;;;;;;;15.45;11.20;;;;;;;19.05;68.29;101789.41;5066954;28;20047;-74
2022/07/24 07:02:10;;;;;;;14.82;9.73;;;;;;;19.10;66.07;101779.50;5066974;28;20040;-74
2022/07/24 07:04:35;;;;;;;11.73;9.07;;;;;;;19.15;65.36;101776.63;5063631;28;20024;-74
2022/07/24 07:07:02;;;;;;;10.82;7.78;;;;;;;19.19;63.08;101776.41;5066994;28;20047;-74
2022/07/24 07:09:28;;;;;;;10.95;8.15;;;;;;;19.27;65.74;101773.41;5059696;28;20360;-74
2022/07/24 07:11:53;;;;;;;9.50;6.85;;;;;;;19.34;63.41;101774.84;5058706;28;20032;-74
2022/07/24 07:14:19;;;;;;;8.57;6.57;;;;;;;19.41;62.74;101776.25;5062185;28;20380;-74
2022/07/24 07:16:44;;;;;;;9.10;6.40;;;;;;;19.47;62.35;101768.97;5063219;28;20112;-74
2022/07/24 07:19:09;;;;;;;10.55;6.38;;;;;;;19.52;61.68;101766.97;5042355;28;20024;-74
2022/07/24 07:21:36;;;;;;;9.82;5.22;;;;;;;19.59;61.78;101763.06;5060877;28;20038;-74
2022/07/24 07:24:01;;;;;;;7.25;5.65;;;;;;;19.65;61.80;101762.78;5060713;28;20491;-75
2022/07/24 07:26:27;;;;;;;7.40;5.53;;;;;;;19.71;59.75;101769.53;5060756;28;20028;-74
2022/07/24 07:28:52;;;;;;;8.73;4.88;;;;;;;19.77;60.16;101774.53;5064673;28;20532;-74
2022/07/24 07:31:17;;;;;;;7.53;4.78;;;;;;;19.82;59.38;101780.41;5061152;28;20033;-74
2022/07/24 07:33:43;;;;;;;6.80;4.88;;;;;;;19.89;58.75;101777.50;5065091;28;20487;-73
2022/07/24 07:36:08;;;;;;;6.35;4.80;;;;;;;19.95;59.56;101785.13;5061194;28;20032;-74
2022/07/24 07:38:37;;;;;;;6.22;4.22;;;;;;;20.02;58.58;101783.88;5059120;28;20025;-75
2022/07/24 07:41:02;;;;;;;7.25;4.20;;;;;;;20.07;57.98;101784.50;5055607;28;20052;-75
2022/07/24 07:43:28;;;;;;;7.03;4.45;;;;;;;20.13;58.86;101785.97;5061436;28;20032;-74
2022/07/24 07:45:53;;;;;;;7.72;3.95;;;;;;;20.20;58.61;101786.50;5063113;28;20050;-74
2022/07/24 07:48:18;;;;;;;6.10;4.15;;;;;;;20.27;58.89;101785.25;5062337;28;20029;-74
2022/07/24 07:50:44;;;;;;;6.13;4.40;;;;;;;20.32;57.80;101785.88;5064256;28;20502;-74
2022/07/24 07:53:09;;;;;;;6.18;4.22;;;;;;;20.38;58.17;101787.34;5054542;28;20571;-74
2022/07/24 07:55:34;;;;;;;5.90;4.30;;;;;;;20.44;57.78;101781.72;5059299;28;20020;-74
2022/07/24 07:58:00;;;;;;;5.38;4.05;;;;;;;20.50;56.31;101781.41;5061275;28;20081;-74
2022/07/24 08:00:25;;;;;;;5.57;3.60;;;;;;;20.57;57.29;101781.94;5060417;28;20424;-74
2022/07/24 08:02:51;;;;;;;5.22;3.28;;;;;;;20.61;55.50;101772.91;5057469;28;20086;-74
2022/07/24 08:05:16;;;;;;;5.50;3.33;;;;;;;20.65;54.84;101774.47;5063027;28;20036;-74
2022/07/24 08:07:41;;;;;;;5.13;3.13;;;;;;;20.68;54.73;101771.63;5062787;28;20024;-74
2022/07/24 08:10:07;;;;;;;7.75;3.30;;;;;;;20.71;54.29;101768.84;5057344;28;20654;-74
2022/07/24 08:12:32;;;;;;;5.00;2.97;;;;;;;20.73;53.30;101761.69;5058523;28;20040;-74
2022/07/24 08:14:57;;;;;;;4.10;2.88;;;;;;;20.76;53.09;101761.53;5058026;28;20036;-75
2022/07/24 08:17:23;;;;;;;3.67;2.50;;;;;;;20.77;52.12;101755.31;5056243;28;20206;-74
2022/07/24 08:19:48;;;;;;;3.15;2.70;;;;;;;20.79;53.14;101757.88;5056833;28;20032;-74
2022/07/24 08:22:20;;;;;;;4.05;2.42;;;;;;;20.85;52.07;101759.31;5048356;28;20953;-72
2022/07/24 08:24:45;;;;;;;3.65;2.30;;;;;;;20.95;52.83;101770.25;5043262;28;20033;-72
2022/07/24 08:27:10;;;;;;;3.78;2.15;;;;;;;21.04;51.38;101773.25;5040790;28;20087;-72
2022/07/24 08:29:36;;;;;;;2.90;2.10;;;;;;;21.11;49.23;101776.41;5046231;28;20380;-72
2022/07/24 08:32:04;;;;;;;3.25;1.75;;;;;;;21.19;49.60;101773.31;5044580;28;20037;-72
2022/07/24 08:34:30;;;;;;;2.38;1.80;;;;;;;21.26;48.82;101773.88;5043238;28;20087;-72
2022/07/24 08:36:55;;;;;;;6.20;2.03;;;;;;;21.31;49.33;101767.38;5047532;28;20036;-72
2022/07/24 08:39:20;;;;;;;5.97;2.25;;;;;;;21.36;48.93;101770.59;5045947;28;20036;-72
2022/07/24 08:41:46;;;;;;;3.40;1.80;;;;;;;21.43;48.83;101770.25;5043131;28;20358;-72
2022/07/24 08:44:11;;;;;;;3.25;1.90;;;;;;;21.48;49.60;101771.69;5042089;28;20171;-72
2022/07/24 08:46:37;;;;;;;2.45;1.88;;;;;;;21.56;51.65;101760.66;5045777;28;20089;-72
2022/07/24 08:49:09;;;;;;;2.63;1.73;;;;;;;21.61;50.69;101763.94;5044310;28;20033;-72
2022/07/24 08:51:37;;;;;;;2.88;2.00;;;;;;;21.66;48.98;101766.31;5040631;28;20486;-75
2022/07/24 08:54:03;;;;;;;3.28;2.00;;;;;;;21.73;49.40;101769.44;5040344;28;20037;-74
2022/07/24 08:56:29;;;;;;;3.92;2.17;;;;;;;21.77;48.23;101763.03;5043945;28;20039;-74
2022/07/24 08:58:54;;;;;;;2.88;1.83;;;;;;;21.82;47.95;101755.69;5044999;28;20179;-74
2022/07/24 09:01:20;;;;;;;2.83;1.85;;;;;;;21.87;49.00;101756.22;5043205;28;20082;-72
2022/07/24 09:03:46;;;;;;;3.00;1.88;;;;;;;21.95;50.32;101756.66;5045653;28;20056;-72
2022/07/24 09:06:14;;;;;;;3.72;1.70;;;;;;;22.03;47.98;101758.84;5043578;28;20033;-72
2022/07/24 09:08:41;;;;;;;2.13;1.70;;;;;;;22.12;50.26;101754.78;5045934;28;20502;-72
2022/07/24 09:11:07;;;;;;;2.22;1.80;;;;;;;22.18;48.31;101751.78;5053249;28;20028;-72
2022/07/24 09:16:23;;;;;;;2.67;1.77;;;;;;;22.29;47.54;101749.31;5046648;28;20100;-72
2022/07/24 09:18:50;;;;;;;3.08;1.52;;;;;;;22.34;47.17;101748.19;5044387;28;21945;-73
2022/07/24 09:21:17;;;;;;;2.10;1.58;;;;;;;22.38;47.83;101744.38;5045844;28;20103;-72
2022/07/24 09:23:44;;;;;;;3.38;1.70;;;;;;;22.43;47.31;101739.69;5046663;28;20033;-73
2022/07/24 09:26:10;;;;;;;5.22;1.80;;;;;;;22.49;47.76;101747.25;5044010;28;20040;-72
2022/07/24 09:28:53;;;;;;;2.63;1.65;;;;;;;22.54;48.94;101737.22;5046551;28;20567;-73
2022/07/24 09:31:21;;;;;;;2.00;1.58;;;;;;;22.59;47.57;101739.59;5042447;28;20100;-72
2022/07/24 09:33:46;;;;;;;2.53;1.70;;;;;;;22.66;48.35;101745.34;5032338;28;20033;-72
2022/07/24 09:36:14;;;;;;;4.00;1.65;;;;;;;22.70;47.50;101741.56;5029396;28;20040;-73
2022/07/24 09:38:46;;;;;;;2.22;1.65;;;;;;;22.72;47.46;101735.22;5033769;28;20029;-72
2022/07/24 09:41:11;;;;;;;4.47;1.95;;;;;;;22.77;46.93;101737.56;5034962;28;20040;-72
2022/07/24 09:43:38;;;;;;;2.53;1.77;;;;;;;22.82;47.28;101730.19;5025487;28;20034;-72
2022/07/24 09:46:08;;;;;;;2.85;1.80;;;;;;;22.86;48.57;101723.72;5028704;28;20044;-74
2022/07/24 09:48:52;;;;;;;2.30;1.70;;;;;;;22.91;49.39;101722.56;5033992;28;20042;-72
2022/07/24 09:51:18;;;;;;;1.83;1.58;;;;;;;22.96;47.41;101720.47;5037119;28;20315;-72
2022/07/24 09:53:46;;;;;;;4.00;1.80;;;;;;;23.01;46.94;101721.03;5033510;28;20752;-73
2022/07/24 09:56:13;;;;;;;2.63;1.77;;;;;;;23.03;47.48;101721.78;5037080;28;20034;-73
2022/07/24 09:58:52;;;;;;;2.65;1.77;;;;;;;23.08;48.84;101721.47;5037104;28;20037;-73
2022/07/24 10:01:21;;;;;;;3.92;1.80;;;;;;;23.13;47.87;101717.56;5037494;28;20037;-73
2022/07/24 10:03:48;;;;;;;2.08;1.60;;;;;;;23.15;47.00;101710.38;5027655;28;20115;-73
2022/07/24 10:06:17;;;;;;;2.63;1.88;;;;;;;23.21;47.55;101713.63;5025569;28;20426;-73
2022/07/24 10:08:44;;;;;;;2.13;1.60;;;;;;;23.27;49.52;101706.09;5022880;28;20044;-73
2022/07/24 10:11:11;;;;;;;2.65;1.63;;;;;;;23.32;47.34;101705.78;5025405;28;20044;-73
2022/07/24 10:13:37;;;;;;;2.97;1.80;;;;;;;23.34;47.18;101703.88;5026257;28;20675;-73
2022/07/24 10:16:11;;;;;;;2.80;1.67;;;;;;;23.38;48.77;101699.22;5026660;28;20114;-73
2022/07/24 10:18:51;;;;;;;3.28;1.70;;;;;;;23.43;48.14;101697.94;5026767;28;20055;-73
2022/07/24 10:21:21;;;;;;;2.27;1.53;;;;;;;23.49;48.40;101692.22;5040679;28;20064;-73
2022/07/24 10:24:08;;;;;;;2.00;1.70;;;;;;;23.54;48.02;101693.72;5040437;28;20531;-73
2022/07/24 10:26:58;;;;;;;3.28;1.65;;;;;;;23.58;47.25;101689.88;5036283;28;20500;-73
2022/07/24 10:29:24;;;;;;;8.43;1.70;;;;;;;23.61;46.77;101692.34;5034633;28;20040;-73
2022/07/24 10:31:55;;;;;;;2.17;1.75;;;;;;;23.65;47.00;101694.69;5035326;28;20047;-75
2022/07/24 10:34:31;;;;;;;2.22;1.90;;;;;;;23.69;47.09;101687.38;5036951;28;20030;-72
2022/07/24 10:37:12;;;;;;;3.63;1.80;;;;;;;23.72;47.48;101689.81;5038449;28;20090;-72
2022/07/24 10:39:47;;;;;;;2.22;1.70;;;;;;;23.75;47.70;101681.63;5037210;28;20487;-73
2022/07/24 10:42:12;;;;;;;3.25;1.83;;;;;;;23.79;47.75;101676.97;5038205;28;20445;-73
2022/07/24 10:44:38;;;;;;;3.40;1.67;;;;;;;23.82;47.41;101670.59;5033585;28;20128;-73
2022/07/24 10:47:05;;;;;;;2.40;1.92;;;;;;;23.84;47.13;101669.50;5039647;28;20025;-73
2022/07/24 10:49:48;;;;;;;3.00;1.70;;;;;;;23.88;47.18;101667.50;5039813;28;20040;-73
2022/07/24 10:52:32;;;;;;;3.30;1.80;;;;;;;23.92;47.88;101663.66;5030945;28;20025;-74
2022/07/24 10:55:24;;;;;;;2.80;1.80;;;;;;;23.96;48.49;101659.84;5035148;28;20025;-73
2022/07/24 10:57:54;;;;;;;24.25;5.85;;;;;;;24.01;49.53;101671.03;5032585;28;20025;-73
2022/07/24 11:00:30;;;;;;;12.43;3.53;;;;;;;24.05;47.41;101666.34;5033260;28;20033;-73
2022/07/24 11:03:05;;;;;;;5.20;2.50;;;;;;;24.04;47.47;101660.19;5036078;28;20037;-73
2022/07/24 11:05:39;;;;;;;3.55;2.05;;;;;;;24.06;47.74;101662.75;5035833;28;20059;-73
2022/07/24 11:08:20;;;;;;;2.83;1.88;;;;;;;24.09;47.82;101662.53;5033386;28;20795;-73
2022/07/24 11:10:50;;;;;;;2.22;2.00;;;;;;;24.10;47.23;101657.09;5035796;28;20078;-73
2022/07/24 11:13:31;;;;;;;2.35;1.85;;;;;;;24.12;47.93;101664.09;5033567;28;20025;-72
2022/07/24 11:16:11;;;;;;;5.25;2.03;;;;;;;24.15;48.65;101656.78;5032863;28;20035;-73
2022/07/24 11:18:38;;;;;;;2.23;1.83;;;;;;;24.16;46.85;101657.63;5035536;28;20029;-74
2022/07/24 11:21:04;;;;;;;2.63;1.90;;;;;;;24.15;46.41;101655.94;5032779;28;20196;-73